createdAt,value
2019-05-12T00:02:32.103Z,24.17
2019-05-12T00:07:37.946Z,25.80
2019-05-12T00:12:41.071Z,24.77
2019-05-12T00:17:44.702Z,25.93
2019-05-12T00:22:49.941Z,24.87
2019-05-12T00:27:53.596Z,29.37
2019-05-12T00:32:58.079Z,26.40
2019-05-12T00:38:02.375Z,27.00
2019-05-12T00:43:08.458Z,27.73
2019-05-12T00:48:11.354Z,26.67
2019-05-12T00:53:15.051Z,25.60
2019-05-12T00:58:19.458Z,28.70
2019-05-12T01:03:23.318Z,25.53
2019-05-12T01:08:28.017Z,29.23
2019-05-12T01:13:32.130Z,26.87
2019-05-12T01:18:35.798Z,30.53
2019-05-12T01:23:53.296Z,28.03
2019-05-12T01:28:44.651Z,28.67
2019-05-12T01:33:48.673Z,33.03
2019-05-12T01:38:52.551Z,29.90
2019-05-12T01:43:58.294Z,28.80
2019-05-12T01:49:01.390Z,33.70
2019-05-12T01:54:11.680Z,32.83
2019-05-12T01:59:10.660Z,33.40
2019-05-12T02:04:14.456Z,37.30
2019-05-12T02:09:22.633Z,34.80
2019-05-12T02:14:27.572Z,35.33
2019-05-12T02:19:31.300Z,33.40
2019-05-12T02:24:35.182Z,34.43
2019-05-12T02:29:38.769Z,36.67
2019-05-12T02:34:45.767Z,39.93
2019-05-12T02:39:48.659Z,36.47
2019-05-12T02:44:54.947Z,34.90
2019-05-12T02:49:57.566Z,34.50
2019-05-12T02:55:05.628Z,40.33
2019-05-12T03:00:07.820Z,37.40
2019-05-12T03:05:14.823Z,37.90
2019-05-12T03:10:18.001Z,33.43
2019-05-12T03:15:24.808Z,36.30
2019-05-12T03:20:26.940Z,31.87
2019-05-12T03:25:30.590Z,35.10
2019-05-12T03:30:38.663Z,34.30
2019-05-12T03:35:43.534Z,30.73
2019-05-12T03:40:45.362Z,33.07
2019-05-12T03:45:49.192Z,30.50
2019-05-12T03:50:54.120Z,29.57
2019-05-12T03:55:57.760Z,33.10
2019-05-12T04:01:04.339Z,28.33
2019-05-12T04:06:06.811Z,27.40
2019-05-12T04:11:10.470Z,28.20
2019-05-12T04:16:16.483Z,28.97
2019-05-12T04:21:19.872Z,29.43
2019-05-12T04:26:25.306Z,29.37
2019-05-12T04:31:29.272Z,28.87
2019-05-12T04:36:35.537Z,33.03
2019-05-12T04:41:38.324Z,27.50
2019-05-12T04:46:45.048Z,21.67
2019-05-12T04:51:47.534Z,23.77
2019-05-12T04:56:51.194Z,23.67
2019-05-12T05:01:54.782Z,22.53
2019-05-12T05:06:58.830Z,26.63
2019-05-12T05:12:04.572Z,26.50
2019-05-12T05:17:08.191Z,24.93
2019-05-12T05:22:13.683Z,26.17
2019-05-12T05:27:17.177Z,25.20
2019-05-12T05:32:23.163Z,25.70
2019-05-12T05:37:26.089Z,23.27
2019-05-12T05:42:32.773Z,25.00
2019-05-12T05:47:35.061Z,23.70
2019-05-12T05:52:39.122Z,25.87
2019-05-12T05:57:44.386Z,27.67
2019-05-12T06:02:48.637Z,21.77
2019-05-12T06:07:53.598Z,22.83
2019-05-12T06:12:57.312Z,24.53
2019-05-12T06:18:03.339Z,23.40
2019-05-12T06:23:06.537Z,23.90
2019-05-12T06:28:10.141Z,28.67
2019-05-12T06:33:14.409Z,37.10
2019-05-12T06:38:18.354Z,28.47
2019-05-12T06:43:24.255Z,28.57
2019-05-12T06:48:30.194Z,29.13
2019-05-12T06:53:33.619Z,27.40
2019-05-12T06:58:37.357Z,26.23
2019-05-12T07:03:41.426Z,35.97
2019-05-12T07:08:45.093Z,29.40
2019-05-12T07:14:01.336Z,32.07
2019-05-12T07:18:54.323Z,32.17
2019-05-12T07:24:00.351Z,34.17
2019-05-12T07:29:04.409Z,36.03
2019-05-12T07:34:08.673Z,38.67
2019-05-12T07:39:13.598Z,39.73
2019-05-12T07:44:22.187Z,37.70
2019-05-12T07:49:34.526Z,46.30
2019-05-12T07:54:52.932Z,38.80
2019-05-12T07:59:55.153Z,32.50
2019-05-12T08:04:59.155Z,34.27
2019-05-12T08:10:07.263Z,33.20
2019-05-12T08:15:09.799Z,31.60
2019-05-12T08:20:13.941Z,31.07
2019-05-12T08:25:18.809Z,27.33
2019-05-12T08:30:33.595Z,26.97
2019-05-12T08:35:38.679Z,20.53
2019-05-12T08:40:48.830Z,19.47
2019-05-12T08:45:48.511Z,20.33
2019-05-12T08:50:54.585Z,18.10
2019-05-12T08:55:57.647Z,16.60
2019-05-12T09:01:04.251Z,19.97
2019-05-12T09:06:09.347Z,19.23
2019-05-12T09:11:13.942Z,18.93
2019-05-12T09:16:17.885Z,14.03
2019-05-12T09:21:23.657Z,13.73
2019-05-12T09:26:28.436Z,17.77
2019-05-12T09:31:33.601Z,17.13
2019-05-12T09:36:37.516Z,12.70
2019-05-12T09:41:43.985Z,13.10
2019-05-12T09:46:46.709Z,12.70
2019-05-12T09:51:50.697Z,11.87
2019-05-12T09:56:59.324Z,11.70
2019-05-12T10:02:00.010Z,14.97
2019-05-12T10:07:03.889Z,11.27
2019-05-12T10:12:08.017Z,12.43
2019-05-12T10:17:14.095Z,9.00
2019-05-12T10:22:16.918Z,11.93
2019-05-12T10:27:21.251Z,12.87
2019-05-12T10:32:26.225Z,12.63
2019-05-12T10:37:29.816Z,11.20
2019-05-12T10:42:33.747Z,12.33
2019-05-12T10:47:37.848Z,12.83
2019-05-12T10:52:43.913Z,14.90
2019-05-12T10:57:47.437Z,12.17
2019-05-12T11:02:53.482Z,12.63
2019-05-12T11:08:00.238Z,15.83
2019-05-12T11:13:08.418Z,12.67
2019-05-12T11:18:09.485Z,14.17
2019-05-12T11:23:13.791Z,11.10
2019-05-12T11:28:17.574Z,11.97
2019-05-12T11:33:23.647Z,11.07
2019-05-12T11:38:26.693Z,15.23
2019-05-12T11:43:30.287Z,13.33
2019-05-12T11:48:34.011Z,14.23
2019-05-12T11:53:37.696Z,15.00
2019-05-12T11:58:47.385Z,14.33
2019-05-12T12:03:46.940Z,13.13
2019-05-12T12:08:50.933Z,14.20
2019-05-12T12:13:54.606Z,13.67
2019-05-12T12:19:26.071Z,15.90
2019-05-12T12:24:31.443Z,12.73
2019-05-12T12:29:34.541Z,14.43
2019-05-12T12:34:38.710Z,12.97
2019-05-12T12:39:43.483Z,13.37
2019-05-12T12:44:47.192Z,13.40
2019-05-12T12:49:51.171Z,12.60
2019-05-12T12:54:59.461Z,12.97
2019-05-12T13:00:00.470Z,13.77
2019-05-12T13:05:04.905Z,13.97
2019-05-12T13:10:09.773Z,12.53
2019-05-12T13:15:15.415Z,15.17
2019-05-12T13:20:19.234Z,14.20
2019-05-12T13:25:22.901Z,10.20
2019-05-12T13:30:26.570Z,11.73
2019-05-12T13:35:30.196Z,12.17
2019-05-12T13:40:36.097Z,13.50
2019-05-12T13:45:39.611Z,10.03
2019-05-12T13:50:43.537Z,15.23
2019-05-12T13:55:50.187Z,10.97
2019-05-12T14:01:12.251Z,10.97
2019-05-12T14:06:04.521Z,10.67
2019-05-12T14:11:08.601Z,11.30
2019-05-12T14:16:12.282Z,10.17
2019-05-12T14:21:16.028Z,9.83
2019-05-12T14:26:20.101Z,12.17
2019-05-12T14:31:30.207Z,12.00
2019-05-12T14:36:32.110Z,11.50
2019-05-12T14:41:36.090Z,11.33
2019-05-12T14:46:40.159Z,12.03
2019-05-12T14:51:45.529Z,13.37
2019-05-12T14:56:55.701Z,13.13
2019-05-12T15:01:59.316Z,14.00
2019-05-12T15:07:08.086Z,12.20
2019-05-12T15:12:05.626Z,10.77
2019-05-12T15:17:13.867Z,11.20
2019-05-12T15:22:14.964Z,9.20
2019-05-12T15:27:19.068Z,12.87
2019-05-12T15:32:23.614Z,11.47
2019-05-12T15:37:28.867Z,12.23
2019-05-12T15:42:33.648Z,12.90
2019-05-12T15:47:37.759Z,13.13
2019-05-12T15:53:00.699Z,12.87
2019-05-12T15:58:05.753Z,12.30
2019-05-12T16:03:09.765Z,11.63
2019-05-12T16:08:14.312Z,11.03
2019-05-12T16:13:18.190Z,12.00
2019-05-12T16:18:23.467Z,11.87
2019-05-12T16:23:30.053Z,10.47
2019-05-12T16:28:33.607Z,10.17
2019-05-12T16:33:37.414Z,9.60
2019-05-12T16:38:41.013Z,12.67
2019-05-12T16:43:44.714Z,12.90
2019-05-12T16:48:53.615Z,9.43
2019-05-12T16:53:54.017Z,8.00
2019-05-12T16:58:57.772Z,9.20
2019-05-12T17:04:04.154Z,9.93
2019-05-12T17:09:08.433Z,9.73
2019-05-12T17:14:12.190Z,9.07
2019-05-12T17:19:15.881Z,9.57
2019-05-12T17:24:19.693Z,10.07
2019-05-12T17:29:24.234Z,8.80
2019-05-12T17:34:27.951Z,8.83
2019-05-12T17:39:35.752Z,9.13
2019-05-12T17:44:39.028Z,8.13
2019-05-12T17:49:43.615Z,10.73
2019-05-12T17:54:47.453Z,9.87
2019-05-12T17:59:51.427Z,9.13
2019-05-12T18:04:55.154Z,10.97
2019-05-12T18:10:00.588Z,12.03
2019-05-12T18:15:05.482Z,9.83
2019-05-12T18:20:09.889Z,7.60
2019-05-12T18:25:14.728Z,7.73
2019-05-12T18:30:30.811Z,11.33
2019-05-12T18:35:34.809Z,10.03
2019-05-12T18:40:39.598Z,10.87
2019-05-12T18:45:48.789Z,8.57
2019-05-12T18:50:49.358Z,8.60
2019-05-12T18:55:53.905Z,9.40
2019-05-12T19:00:57.867Z,8.33
2019-05-12T19:06:03.420Z,8.03
2019-05-12T19:11:18.904Z,8.90
2019-05-12T19:16:15.138Z,11.30
2019-05-12T19:21:20.190Z,11.23
2019-05-12T19:26:24.116Z,9.73
2019-05-12T19:31:27.947Z,11.23
2019-05-12T19:36:38.092Z,9.10
2019-05-12T19:41:38.093Z,9.70
2019-05-12T19:46:45.863Z,8.83
2019-05-12T19:51:47.677Z,11.03
2019-05-12T19:56:53.598Z,7.67
2019-05-12T20:01:56.703Z,12.80
2019-05-12T20:07:00.415Z,9.07
2019-05-12T20:12:08.488Z,9.27
2019-05-12T20:17:09.425Z,10.67
2019-05-12T20:22:13.879Z,8.60
2019-05-12T20:27:21.915Z,12.90
2019-05-12T20:32:24.135Z,9.57
2019-05-12T20:37:27.816Z,11.67
2019-05-12T20:42:33.970Z,9.37
2019-05-12T20:47:38.935Z,11.83
2019-05-12T20:52:46.332Z,10.27
2019-05-12T20:57:52.428Z,11.43
2019-05-12T21:02:53.909Z,9.90
2019-05-12T21:08:03.731Z,8.43
2019-05-12T21:13:03.869Z,9.57
2019-05-12T21:18:07.653Z,10.27
2019-05-12T21:23:33.180Z,9.03
2019-05-12T21:28:37.172Z,10.70
2019-05-12T21:33:41.853Z,9.27
2019-05-12T21:38:45.788Z,8.73
2019-05-12T21:43:49.815Z,9.53
2019-05-12T21:48:56.210Z,9.03
2019-05-12T21:53:58.866Z,10.83
2019-05-12T21:59:03.757Z,12.17
2019-05-12T22:04:07.565Z,10.43
2019-05-12T22:09:14.217Z,11.97
2019-05-12T22:14:17.037Z,10.70
2019-05-12T22:19:20.713Z,11.10
2019-05-12T22:24:33.896Z,12.20
2019-05-12T22:29:31.373Z,12.40
2019-05-12T22:34:40.325Z,9.33
2019-05-12T22:39:40.385Z,10.40
2019-05-12T22:44:43.992Z,16.20
2019-05-12T22:49:52.204Z,13.43
2019-05-12T22:54:53.782Z,11.80
2019-05-12T22:59:57.887Z,10.10
2019-05-12T23:05:03.610Z,9.77
2019-05-12T23:10:11.057Z,12.03
2019-05-12T23:15:13.666Z,12.20
2019-05-12T23:20:17.966Z,13.03
2019-05-12T23:25:21.775Z,14.53
2019-05-12T23:30:26.113Z,10.53
2019-05-12T23:35:36.585Z,10.77
2019-05-12T23:40:35.437Z,7.60
2019-05-12T23:45:39.094Z,9.80
2019-05-12T23:50:43.841Z,9.93
2019-05-12T23:55:47.563Z,8.90
